CW4378 Weather Reports


Display with metric or nautical units.
time (UTC)temp
F
wind
direction
speed
MPH
gust
MPH
rain 1hr
in
rain 24hr
in
rain mn
in
humidity
%
barometer
mb
20210118202038 64 98 1.0 7.0 0.00 0.00 0.00 39 1013.7
20210118201047 66 198 6.0 9.0 0.00 0.00 0.00 39 1013.8
20210118200047 65 202 4.0 8.0 0.00 0.00 0.00 39 1014.0
20210118195047 64 205 5.0 12.0 0.00 0.00 0.00 39 1014.1
20210118194042 64 219 3.0 8.0 0.00 0.00 0.00 37 1014.2
20210118193039 63 89 4.0 7.0 0.00 0.00 0.00 37 1014.4
20210118192037 63 196 3.0 8.0 0.00 0.00 0.00 36 1014.6
20210118191040 64 204 1.0 7.0 0.00 0.00 0.00 35 1014.7
20210118190049 64 189 5.0 9.0 0.00 0.00 0.00 36 1015.0
20210118185042 64 200 3.0 7.0 0.00 0.00 0.00 35 1015.4
20210118184041 64 251 4.0 13.0 0.00 0.00 0.00 34 1015.7
20210118183037 64 212 6.0 11.0 0.00 0.00 0.00 34 1015.9
20210118182038 63 215 3.0 11.0 0.00 0.00 0.00 34 1016.1
20210118181038 62 201 3.0 8.0 0.00 0.00 0.00 36 1016.3
20210118180113 62 198 6.0 7.0 0.00 0.00 0.00 38 1016.5
20210118175040 61 198 3.0 7.0 0.00 0.00 0.00 37 1016.6
20210118174038 60 208 2.0 9.0 0.00 0.00 0.00 38 1016.9
20210118173056 60 198 1.0 11.0 0.00 0.00 0.00 39 1016.9
20210118172037 59 191 1.0 9.0 0.00 0.00 0.00 41 1016.9
20210118171046 58 180 1.0 6.0 0.00 0.00 0.00 43 1017.0
20210118170039 57 189 1.0 9.0 0.00 0.00 0.00 43 1017.1
20210118165037 56 167 4.0 7.0 0.00 0.00 0.00 45 1017.1
20210118164038 55 196 4.0 8.0 0.00 0.00 0.00 46 1017.4
20210118163100 54 256 3.0 6.0 0.00 0.00 0.00 47 1017.7
20210118162039 53 208 2.0 9.0 0.00 0.00 0.00 49 1017.6
20210118161038 51 196 4.0 7.0 0.00 0.00 0.00 51 1017.5
20210118160037 50 184 2.0 5.0 0.00 0.00 0.00 55 1017.6
20210118155043 48 215 5.0 6.0 0.00 0.00 0.00 59 1017.8
20210118154040 46 153 2.0 6.0 0.00 0.00 0.00 62 1017.6
20210118153059 44 202 2.0 5.0 0.00 0.00 0.00 66 1017.4
20210118152037 42 204 3.0 5.0 0.00 0.00 0.00 69 1017.3
20210118151037 39 204 2.0 5.0 0.00 0.00 0.00 71 1017.2
20210118150047 39 213 2.0 4.0 0.00 0.00 0.00 70 1017.1
20210118145039 37 214 0.0 4.0 0.00 0.00 0.00 72 1017.0
20210118144039 35 214 2.0 3.0 0.00 0.00 0.00 75 1017.2
20210118143038 34 234 2.0 3.0 0.00 0.00 0.00 78 1017.1
20210118142041 33 234 1.0 2.0 0.00 0.00 0.00 79 1017.0
20210118141037 32 234 0.0 0.0 0.00 0.00 0.00 80 1016.8
20210118140046 31 234 0.0 0.0 0.00 0.00 0.00 81 1016.6
20210118135037 31 234 0.0 0.0 0.00 0.00 0.00 81 1016.6
20210118134038 30 234 0.0 0.0 0.00 0.00 0.00 80 1016.5
20210118133038 31 234 0.0 0.0 0.00 0.00 0.00 79 1016.6
20210118132039 31 234 0.0 0.0 0.00 0.00 0.00 78 1016.5
20210118131041 31 234 0.0 0.0 0.00 0.00 0.00 78 1016.5
20210118130047 31 234 0.0 0.0 0.00 0.00 0.00 77 1016.4
20210118125037 32 234 0.0 0.0 0.00 0.00 0.00 76 1016.3
20210118124037 33 234 0.0 0.0 0.00 0.00 0.00 75 1016.2
20210118123037 33 234 0.0 0.0 0.00 0.00 0.00 74 1016.4
20210118122037 33 234 0.0 0.0 0.00 0.00 0.00 74 1016.2
20210118121039 33 234 0.0 0.0 0.00 0.00 0.00 74 1016.2
20210118120128 32 234 0.0 0.0 0.00 0.00 0.00 75 1016.2
20210118115052 32 234 0.0 0.0 0.00 0.00 0.00 76 1016.1
20210118114038 32 234 0.0 0.0 0.00 0.00 0.00 77 1016.3
20210118113041 32 234 0.0 0.0 0.00 0.00 0.00 77 1016.3
20210118112040 32 234 0.0 0.0 0.00 0.00 0.00 77 1016.3
20210118111037 32 234 0.0 0.0 0.00 0.00 0.00 77 1016.1
20210118110050 31 234 0.0 0.0 0.00 0.00 0.00 78 1016.0
20210118105038 31 234 0.0 3.0 0.00 0.00 0.00 78 1016.2
20210118104037 32 234 0.0 2.0 0.00 0.00 0.00 77 1016.3
20210118103039 32 234 0.0 0.0 0.00 0.00 0.00 76 1016.3
20210118102037 32 234 0.0 0.0 0.00 0.00 0.00 77 1016.3
20210118101038 32 234 0.0 0.0 0.00 0.00 0.00 76 1016.2
20210118100037 33 234 0.0 0.0 0.00 0.00 0.00 75 1016.2
20210118095037 33 234 0.0 0.0 0.00 0.00 0.00 75 1016.3
20210118094037 33 234 0.0 1.0 0.00 0.00 0.00 75 1016.4
20210118093040 33 234 1.0 2.0 0.00 0.00 0.00 75 1016.5
20210118092037 33 234 0.0 2.0 0.00 0.00 0.00 74 1016.4
20210118091039 33 234 0.0 0.0 0.00 0.00 0.00 75 1016.3
20210118090051 33 234 0.0 2.0 0.00 0.00 0.00 74 1016.5
20210118085043 34 234 1.0 2.0 0.00 0.00 0.00 73 1016.5
20210118084039 35 234 0.0 0.0 0.00 0.00 0.00 71 1016.6
20210118083049 35 234 0.0 1.0 0.00 0.00 0.00 71 1016.7
20210118082038 35 234 1.0 1.0 0.00 0.00 0.00 71 1016.6
20210118081038 34 234 0.0 2.0 0.00 0.00 0.00 72 1016.5
20210118080055 35 234 0.0 1.0 0.00 0.00 0.00 71 1016.5
20210118075040 35 234 0.0 2.0 0.00 0.00 0.00 72 1016.6
20210118074038 35 234 0.0 1.0 0.00 0.00 0.00 71 1016.4
20210118073037 35 234 0.0 1.0 0.00 0.00 0.00 70 1016.4
20210118072037 36 234 0.0 0.0 0.00 0.00 0.00 69 1016.3
20210118071038 35 234 0.0 2.0 0.00 0.00 0.00 70 1016.3
20210118070045 35 234 1.0 3.0 0.00 0.00 0.00 70 1016.3
20210118065037 35 234 1.0 3.0 0.00 0.00 0.00 71 1016.2
20210118064044 35 234 2.0 3.0 0.00 0.00 0.00 72 1016.4
20210118063038 35 234 0.0 2.0 0.00 0.00 0.00 71 1016.5
20210118062044 35 234 0.0 3.0 0.00 0.00 0.00 71 1016.5
20210118061041 36 234 2.0 2.0 0.00 0.00 0.00 71 1016.5
20210118060115 36 234 1.0 3.0 0.00 0.00 0.00 70 1016.4
20210118055037 36 263 0.0 2.0 0.00 0.00 0.00 71 1016.4
20210118054042 36 263 0.0 2.0 0.00 0.00 0.00 70 1016.5
20210118053037 36 263 0.0 2.0 0.00 0.00 0.00 70 1016.6
20210118052037 37 263 2.0 2.0 0.00 0.00 0.00 70 1016.6
20210118051037 37 265 0.0 4.0 0.00 0.00 0.00 70 1016.6
20210118050038 37 250 1.0 3.0 0.00 0.00 0.00 71 1016.7
20210118045044 37 250 1.0 2.0 0.00 0.00 0.00 70 1016.6
20210118044037 37 242 0.0 3.0 0.00 0.00 0.00 70 1016.6
20210118043042 37 234 2.0 4.0 0.00 0.00 0.00 70 1016.6
20210118042043 37 229 2.0 3.0 0.00 0.00 0.00 69 1016.7
20210118041037 38 228 0.0 2.0 0.00 0.00 0.00 68 1016.4
20210118040044 38 227 1.0 3.0 0.00 0.00 0.00 69 1016.4
20210118035047 38 219 2.0 3.0 0.00 0.00 0.00 69 1016.5
20210118034040 38 256 1.0 3.0 0.00 0.00 0.00 68 1016.5
20210118033039 38 249 2.0 3.0 0.00 0.00 0.00 68 1016.5
20210118032038 38 260 1.0 3.0 0.00 0.00 0.00 68 1016.4
20210118031038 39 262 2.0 3.0 0.00 0.00 0.00 68 1016.4
20210118030049 39 262 0.0 2.0 0.00 0.00 0.00 67 1016.3
20210118025038 39 262 1.0 2.0 0.00 0.00 0.00 67 1016.2
20210118024037 40 262 0.0 3.0 0.00 0.00 0.00 65 1016.2
20210118023037 40 262 2.0 2.0 0.00 0.00 0.00 65 1016.1
20210118022041 41 262 0.0 3.0 0.00 0.00 0.00 64 1016.2
20210118021041 41 263 1.0 1.0 0.00 0.00 0.00 63 1016.1
20210118020053 41 263 0.0 1.0 0.00 0.00 0.00 63 1016.1
20210118015042 42 263 0.0 2.0 0.00 0.00 0.00 62 1015.9
20210118014041 42 263 0.0 1.0 0.00 0.00 0.00 61 1015.9
20210118013048 42 263 0.0 1.0 0.00 0.00 0.00 61 1015.8
20210118012039 43 263 0.0 2.0 0.00 0.00 0.00 60 1015.8
20210118011039 43 263 0.0 2.0 0.00 0.00 0.00 59 1015.7
20210118010104 44 263 0.0 0.0 0.00 0.00 0.00 58 1015.8
20210118005058 44 263 0.0 1.0 0.00 0.00 0.00 57 1015.7
20210118004044 45 263 0.0 1.0 0.00 0.00 0.00 56 1015.6
20210118003045 45 263 0.0 2.0 0.00 0.00 0.00 55 1015.5
20210118002044 46 263 0.0 2.0 0.00 0.00 0.00 53 1015.5
20210118001038 47 263 0.0 0.0 0.00 0.00 0.00 52 1015.5
20210118000117 47 263 0.0 2.0 0.00 0.00 0.00 51 1015.5
20210117235205 49 263 0.0 2.0 0.00 0.00 0.00 50 1015.4
20210117234038 50 263 0.0 4.0 0.00 0.00 0.00 46 1015.3
20210117233037 51 257 2.0 6.0 0.00 0.00 0.00 46 1015.2
20210117232040 52 286 1.0 7.0 0.00 0.00 0.00 45 1015.3
20210117231039 53 261 1.0 8.0 0.00 0.00 0.00 43 1015.2
20210117230047 53 281 3.0 10.0 0.00 0.00 0.00 42 1015.2
20210117225040 54 233 3.0 6.0 0.00 0.00 0.00 41 1015.2
20210117224048 54 259 0.0 8.0 0.00 0.00 0.00 42 1015.2
20210117223048 55 248 5.0 13.0 0.00 0.00 0.00 40 1015.1
20210117222038 55 302 1.0 10.0 0.00 0.00 0.00 40 1015.0
20210117221037 56 229 2.0 11.0 0.00 0.00 0.00 39 1015.0
20210117220041 56 297 1.0 14.0 0.00 0.00 0.00 38 1015.0
20210117215040 56 276 3.0 12.0 0.00 0.00 0.00 39 1015.0
20210117214038 56 260 6.0 14.0 0.00 0.00 0.00 38 1015.1
20210117213048 56 281 1.0 12.0 0.00 0.00 0.00 40 1015.1
20210117212042 55 286 1.0 13.0 0.00 0.00 0.00 39 1014.9
20210117211046 57 271 9.0 13.0 0.00 0.00 0.00 38 1015.0
20210117210110 55 331 2.0 13.0 0.00 0.00 0.00 39 1015.0
20210117205039 56 306 5.0 15.0 0.00 0.00 0.00 39 1015.1
20210117204045 56 264 7.0 13.0 0.00 0.00 0.00 38 1015.0
20210117203037 54 166 1.0 9.0 0.00 0.00 0.00 41 1015.1